Time;durP1;ratioP1;P1;durP2;ratioP2;P2;SDS_P1;SDS_P2;PMS_P1;PMS_P2;Temp;Humidity;BMP_temperature;BMP_pressure;BME280_temperature;BME280_humidity;BME280_pressure;Samples;Min_cycle;Max_cycle;Signal;HPM_P1;HPM_P2
2022/06/02 00:02:49;;;;;;;8.63;6.00;;;;;;;9.43;77.63;101891.31;10490207;28;20036;-80
2022/06/02 00:08:24;;;;;;;8.23;6.25;;;;;;;9.57;79.60;101894.53;10497013;28;20036;-78
2022/06/02 00:13:44;;;;;;;7.93;6.22;;;;;;;9.33;79.62;101903.72;10498108;28;20041;-78
2022/06/02 00:18:54;;;;;;;8.00;6.20;;;;;;;9.53;79.19;101904.66;10481272;28;20044;-78
2022/06/02 00:24:07;;;;;;;9.07;6.45;;;;;;;9.60;79.22;101912.66;10488788;28;20807;-79
2022/06/02 00:29:42;;;;;;;8.07;5.60;;;;;;;9.36;78.42;101916.75;10476510;28;20052;-79
2022/06/02 00:35:01;;;;;;;8.68;6.32;;;;;;;9.36;78.75;101915.84;10470144;28;20084;-79
2022/06/02 00:40:07;;;;;;;7.63;5.80;;;;;;;9.28;77.83;101917.16;10480664;28;20029;-79
2022/06/02 00:45:12;;;;;;;7.85;5.78;;;;;;;9.04;78.80;101915.22;10503550;28;20359;-79
2022/06/02 00:50:23;;;;;;;7.68;5.72;;;;;;;9.12;77.17;101920.72;10494844;28;20056;-80
2022/06/02 01:01:24;;;;;;;;;;;;;;;9.11;78.74;101925.00;10489248;28;20043;-78
2022/06/02 01:06:48;;;;;;;9.55;5.72;;;;;;;8.53;79.12;101931.56;10489999;28;19924;-78
2022/06/02 01:12:17;;;;;;;8.98;6.20;;;;;;;8.36;79.42;101934.94;10461310;28;20041;-78
2022/06/02 01:17:47;;;;;;;7.07;5.50;;;;;;;8.51;79.43;101940.88;10461482;28;20078;-79
2022/06/02 01:23:14;;;;;;;7.68;6.10;;;;;;;8.57;78.66;101936.06;10483030;28;20045;-78
2022/06/02 01:28:29;;;;;;;11.23;6.00;;;;;;;7.84;82.16;101938.19;10496078;28;20060;-80
2022/06/02 01:33:56;;;;;;;9.40;6.25;;;;;;;8.07;81.50;101947.13;10493961;28;20040;-78
2022/06/02 01:39:16;;;;;;;9.45;6.43;;;;;;;8.29;81.44;101951.69;10477646;28;20525;-79
2022/06/02 01:44:36;;;;;;;7.85;5.72;;;;;;;8.31;81.03;101949.19;10497720;28;20097;-78
2022/06/02 01:49:47;;;;;;;7.57;5.73;;;;;;;8.19;80.13;101942.63;10487301;28;20078;-78
2022/06/02 01:55:24;;;;;;;7.68;5.55;;;;;;;8.08;80.08;101954.00;10499415;28;20057;-77
2022/06/02 02:00:30;;;;;;;7.72;5.90;;;;;;;7.91;80.18;101953.09;10508266;28;20033;-78
2022/06/02 02:05:53;;;;;;;9.15;5.90;;;;;;;7.88;79.48;101952.97;10493129;28;20059;-78
2022/06/02 02:11:19;;;;;;;9.23;6.45;;;;;;;7.90;79.62;101962.50;10491570;28;20529;-78
2022/06/02 02:16:49;;;;;;;7.93;5.70;;;;;;;7.69;80.25;101957.09;10487812;28;20048;-80
2022/06/02 02:22:15;;;;;;;9.38;6.28;;;;;;;7.55;80.94;101956.34;10459634;28;20045;-80
2022/06/02 02:27:26;;;;;;;8.98;6.22;;;;;;;7.55;80.97;101960.56;10470817;28;20508;-78
2022/06/02 02:32:43;;;;;;;9.32;5.93;;;;;;;7.59;80.61;101958.25;10500214;28;20047;-79
2022/06/02 02:37:54;;;;;;;10.10;6.28;;;;;;;7.50;80.90;101956.88;10508652;28;20048;-78
2022/06/02 02:43:10;;;;;;;7.07;5.00;;;;;;;7.49;80.64;101966.22;10498900;28;20037;-77
2022/06/02 02:48:30;;;;;;;9.07;6.25;;;;;;;7.01;82.34;101970.38;10480322;28;20052;-78
2022/06/02 02:53:39;;;;;;;8.80;5.60;;;;;;;7.21;81.17;101971.50;10484531;28;20506;-80
2022/06/02 02:59:02;;;;;;;9.77;5.53;;;;;;;6.99;81.00;101983.97;10496325;28;20045;-78
2022/06/02 03:04:18;;;;;;;8.77;5.72;;;;;;;7.02;81.08;101974.69;10499954;28;20040;-80
2022/06/02 03:09:46;;;;;;;8.23;4.88;;;;;;;6.78;81.37;101986.16;10491106;28;20053;-79
2022/06/02 03:14:53;;;;;;;8.02;5.18;;;;;;;6.87;80.93;101988.38;10504896;28;20053;-79
2022/06/02 03:20:05;;;;;;;6.45;4.80;;;;;;;7.02;81.05;101990.06;10487577;28;20107;-79
2022/06/02 03:25:22;;;;;;;7.95;5.03;;;;;;;7.07;81.00;101987.00;10474347;28;20064;-78
2022/06/02 03:30:29;;;;;;;6.38;4.72;;;;;;;6.99;81.38;101989.09;10496439;28;20048;-79
2022/06/02 03:35:58;;;;;;;7.03;4.85;;;;;;;6.99;81.29;101993.34;10496209;28;20060;-79
2022/06/02 03:41:22;;;;;;;7.05;4.88;;;;;;;6.80;81.22;102002.50;10498994;28;20162;-78
2022/06/02 03:47:03;;;;;;;7.13;5.25;;;;;;;6.83;80.71;102001.78;10484432;28;20048;-79
2022/06/02 03:52:24;;;;;;;7.28;4.88;;;;;;;7.04;81.37;102004.75;10493399;28;20036;-79
2022/06/02 03:57:43;;;;;;;7.80;5.03;;;;;;;6.93;80.75;102013.47;10501971;28;20468;-79
2022/06/02 04:03:05;;;;;;;9.52;5.30;;;;;;;7.16;81.09;102022.50;10502818;28;20063;-78
2022/06/02 04:08:41;;;;;;;5.93;4.63;;;;;;;6.92;81.45;102030.53;10490475;28;20036;-80
2022/06/02 04:14:07;;;;;;;7.63;5.00;;;;;;;7.36;80.18;102035.56;10464446;28;20494;-79
2022/06/02 04:24:43;;;;;;;10.55;6.10;;;;;;;7.43;80.04;102040.25;10481594;28;20433;-79
2022/06/02 04:29:51;;;;;;;10.23;5.78;;;;;;;7.55;81.17;102045.19;10496260;28;20505;-79
2022/06/02 04:35:26;;;;;;;9.93;6.55;;;;;;;7.78;83.29;102059.34;10489970;28;20099;-79
2022/06/02 04:40:58;;;;;;;9.05;6.38;;;;;;;8.04;82.40;102050.47;10497486;28;20045;-79
2022/06/02 04:46:17;;;;;;;11.95;6.72;;;;;;;8.20;82.61;102061.59;10493264;28;20055;-78
2022/06/02 04:51:48;;;;;;;11.55;7.68;;;;;;;8.37;84.44;102065.97;10483444;28;20083;-80
2022/06/02 04:56:57;;;;;;;;;;;;;;;8.57;85.48;102073.88;10492349;28;20048;-78
2022/06/02 05:02:30;;;;;;;13.85;9.73;;;;;;;8.86;84.28;102072.84;10501854;28;19924;-78
2022/06/02 05:08:04;;;;;;;16.10;9.77;;;;;;;9.12;83.04;102080.97;10505005;28;20083;-79
2022/06/02 05:13:35;;;;;;;17.30;10.82;;;;;;;9.18;84.17;102078.75;10490741;28;20136;-80
2022/06/02 05:18:45;;;;;;;16.23;11.50;;;;;;;9.71;81.94;102080.41;10487626;28;20095;-80
2022/06/02 05:23:59;;;;;;;14.45;10.70;;;;;;;9.87;80.63;102077.78;10472890;28;20302;-79
2022/06/02 05:29:22;;;;;;;19.27;11.68;;;;;;;9.91;81.38;102083.97;10479537;28;20057;-78
2022/06/02 05:34:32;;;;;;;18.77;12.13;;;;;;;10.19;81.08;102087.81;10472717;28;20405;-79
2022/06/02 05:39:52;;;;;;;;;;;;;;;10.35;81.12;102092.88;10481180;28;20106;-78
2022/06/02 05:45:11;;;;;;;19.17;12.38;;;;;;;10.77;80.13;102100.81;10497556;28;19978;-79
2022/06/02 05:50:31;;;;;;;21.33;13.80;;;;;;;10.91;80.66;102101.41;10479896;28;20399;-79
2022/06/02 05:55:46;;;;;;;21.00;14.13;;;;;;;10.88;80.53;102109.00;10489905;28;20049;-79
2022/06/02 06:01:08;;;;;;;18.17;13.65;;;;;;;10.99;80.03;102117.22;10485205;28;20365;-78
2022/06/02 06:06:35;;;;;;;20.27;14.40;;;;;;;11.47;78.96;102110.63;10490072;28;20560;-78
2022/06/02 06:11:55;;;;;;;20.33;13.77;;;;;;;11.65;78.80;102108.81;10498384;28;20044;-79
2022/06/02 06:17:27;;;;;;;18.80;14.20;;;;;;;11.99;78.24;102107.59;10495857;28;20052;-80
2022/06/02 06:22:58;;;;;;;20.83;14.63;;;;;;;12.32;76.76;102109.72;10472916;28;20070;-78
2022/06/02 06:28:11;;;;;;;22.90;13.93;;;;;;;12.10;77.17;102112.34;10491756;28;20098;-79
2022/06/02 06:33:38;;;;;;;19.33;14.63;;;;;;;12.26;76.13;102117.25;10499968;28;20048;-79
2022/06/02 06:39:16;;;;;;;16.67;13.18;;;;;;;12.60;75.73;102115.03;10505842;28;20040;-79
2022/06/02 06:44:31;;;;;;;16.73;12.38;;;;;;;13.04;73.53;102115.78;10508705;28;20106;-79
2022/06/02 06:50:02;;;;;;;16.45;12.25;;;;;;;13.01;72.09;102111.38;10500306;28;20489;-78
2022/06/02 06:55:21;;;;;;;15.45;11.65;;;;;;;13.79;70.42;102124.34;10491531;28;20794;-78
2022/06/02 07:00:35;;;;;;;15.45;11.07;;;;;;;14.43;68.78;102124.56;10476026;28;20083;-79
2022/06/02 07:05:42;;;;;;;13.07;10.57;;;;;;;15.38;66.80;102115.06;10468141;28;20055;-78
2022/06/02 07:12:50;;;;;;;9.40;8.13;;;;;;;14.53;63.52;102121.44;10484794;28;20082;-78
2022/06/02 07:16:42;;;;;;;;;;;;;;;15.79;61.82;102125.63;10466554;28;20464;-78
2022/06/02 07:22:04;;;;;;;11.57;9.25;;;;;;;16.56;60.39;102141.22;10500862;28;19924;-79
2022/06/02 07:27:33;;;;;;;14.50;8.98;;;;;;;14.51;65.14;102145.56;10498999;28;20098;-78
2022/06/02 07:32:44;;;;;;;12.40;8.27;;;;;;;14.82;65.19;102149.06;10475998;28;20045;-80
2022/06/02 07:38:02;;;;;;;9.43;7.00;;;;;;;15.35;62.68;102148.75;10496733;28;20053;-78
2022/06/02 07:43:14;;;;;;;8.90;6.38;;;;;;;14.74;62.80;102148.84;10462890;28;20041;-80
2022/06/02 07:48:25;;;;;;;10.20;8.00;;;;;;;15.52;61.98;102151.78;10487354;28;20116;-79
2022/06/02 07:53:48;;;;;;;11.23;8.15;;;;;;;16.64;59.25;102148.31;10490879;28;20102;-79
2022/06/02 07:58:55;;;;;;;10.32;7.57;;;;;;;17.42;57.73;102148.09;10495092;28;20049;-79
2022/06/02 08:04:13;;;;;;;12.40;7.72;;;;;;;18.14;59.59;102146.63;10490975;28;20567;-78
2022/06/02 08:09:33;;;;;;;5.72;4.50;;;;;;;16.94;53.54;102159.38;10492655;28;20592;-78
2022/06/02 08:14:37;;;;;;;;;;;;;;;17.89;53.32;102156.66;10483871;28;20111;-79
2022/06/02 08:19:46;;;;;;;7.25;5.25;;;;;;;16.87;54.53;102170.44;10488604;28;19924;-79
2022/06/02 08:25:06;;;;;;;8.73;4.90;;;;;;;15.93;54.93;102179.66;10479905;28;20722;-78
2022/06/02 08:30:10;;;;;;;6.75;5.57;;;;;;;16.17;59.97;102177.66;10489139;28;20037;-79
2022/06/02 08:35:23;;;;;;;7.32;5.72;;;;;;;17.98;55.79;102180.31;10474459;28;20048;-79
2022/06/02 08:41:28;;;;;;;7.38;5.55;;;;;;;16.49;54.01;102190.47;10471348;28;20045;-78
2022/06/02 08:47:01;;;;;;;6.95;4.90;;;;;;;18.14;52.29;102178.81;10460093;28;20056;-80
2022/06/02 08:52:56;;;;;;;5.63;4.50;;;;;;;19.15;52.09;102177.50;10454622;28;20940;-81
2022/06/02 08:58:20;;;;;;;8.63;4.80;;;;;;;18.48;48.66;102186.22;10447824;28;20094;-80
2022/06/02 09:03:41;;;;;;;5.55;4.13;;;;;;;18.74;49.41;102180.47;10476559;28;20061;-82
2022/06/02 09:09:27;;;;;;;5.68;4.47;;;;;;;19.50;47.34;102185.69;10460683;28;20537;-81
2022/06/02 09:15:05;;;;;;;5.28;4.05;;;;;;;19.84;47.33;102174.66;10471504;28;20110;-80
2022/06/02 09:20:44;;;;;;;5.20;4.53;;;;;;;20.08;45.68;102183.53;10451926;28;20037;-79
2022/06/02 09:25:51;;;;;;;6.45;4.30;;;;;;;17.69;48.71;102193.69;10471951;28;20079;-79
2022/06/02 09:31:20;;;;;;;7.82;4.20;;;;;;;17.95;49.78;102193.28;10471749;28;20040;-80
2022/06/02 09:36:28;;;;;;;5.28;3.50;;;;;;;18.62;44.27;102191.63;10459148;28;20153;-79
2022/06/02 09:42:04;;;;;;;5.10;3.85;;;;;;;19.29;41.63;102190.69;10457512;28;20122;-79
2022/06/02 09:47:30;;;;;;;6.55;3.33;;;;;;;19.72;44.06;102188.50;10456276;28;20049;-79
2022/06/02 09:52:51;;;;;;;5.55;3.13;;;;;;;19.56;42.26;102197.06;10463980;28;20530;-80
2022/06/02 09:58:15;;;;;;;4.35;3.53;;;;;;;17.93;42.56;102194.97;10465319;28;20102;-79
2022/06/02 10:03:38;;;;;;;5.70;3.38;;;;;;;20.21;43.47;102177.53;10456977;28;20087;-80
2022/06/02 10:09:09;;;;;;;5.35;3.40;;;;;;;20.56;42.89;102176.84;10435462;28;20139;-80
2022/06/02 10:14:44;;;;;;;6.13;4.00;;;;;;;19.74;42.51;102180.66;10464778;28;20096;-79
2022/06/02 10:20:08;;;;;;;4.35;3.22;;;;;;;19.97;41.38;102186.97;10494473;28;20041;-80
2022/06/02 10:25:28;;;;;;;3.90;3.00;;;;;;;19.43;41.86;102175.16;10459712;28;20056;-79
2022/06/02 10:30:57;;;;;;;4.28;2.95;;;;;;;20.53;41.48;102171.56;10452345;28;20045;-80
2022/06/02 10:36:30;;;;;;;3.65;2.95;;;;;;;19.56;40.20;102183.97;10456131;28;20506;-80
2022/06/02 10:42:19;;;;;;;4.32;3.50;;;;;;;20.52;39.13;102175.06;10457553;28;20070;-80
2022/06/02 10:47:49;;;;;;;5.30;4.10;;;;;;;19.24;45.51;102184.53;10440922;28;20088;-79
2022/06/02 10:53:13;;;;;;;4.43;3.50;;;;;;;18.94;43.70;102173.78;10453931;28;20048;-79
2022/06/02 10:58:39;;;;;;;8.63;3.78;;;;;;;18.39;44.75;102161.78;10468427;28;20048;-80
2022/06/02 11:04:07;;;;;;;5.85;3.65;;;;;;;19.68;42.57;102157.06;10463493;28;20040;-80
2022/06/02 11:09:37;;;;;;;4.05;3.50;;;;;;;19.41;41.77;102158.56;10465308;28;20045;-80
2022/06/02 11:14:42;;;;;;;;;;;;;;;18.75;42.09;102157.00;10456657;28;20041;-80
2022/06/02 11:20:20;;;;;;;6.28;3.63;;;;;;;18.92;41.62;102154.63;10465908;28;19928;-79
2022/06/02 11:25:55;;;;;;;5.13;3.40;;;;;;;19.18;44.95;102146.16;10470438;28;20079;-81
2022/06/02 11:31:21;;;;;;;4.50;3.63;;;;;;;20.31;41.67;102138.31;10475340;28;20064;-79
2022/06/02 11:36:25;;;;;;;6.35;4.03;;;;;;;20.73;39.48;102147.25;10491236;28;20528;-81
2022/06/02 11:41:51;;;;;;;6.07;3.92;;;;;;;20.07;40.59;102134.69;10482052;28;20055;-80
2022/06/02 11:47:12;;;;;;;4.20;3.50;;;;;;;20.49;40.44;102133.19;10456866;28;20048;-81
2022/06/02 11:52:37;;;;;;;5.63;3.53;;;;;;;20.15;44.22;102119.91;10467248;28;20047;-81
2022/06/02 11:58:06;;;;;;;5.05;2.90;;;;;;;19.39;38.02;102119.38;10473156;28;20049;-81
2022/06/02 12:03:25;;;;;;;4.22;2.90;;;;;;;20.00;38.00;102117.22;10467947;28;20041;-80
2022/06/02 12:08:46;;;;;;;;;;;;;;;18.97;40.19;102116.34;10458724;28;20456;-80
2022/06/02 12:14:05;;;;;;;5.82;2.92;;;;;;;20.59;40.09;102108.75;10460406;28;19924;-79
2022/06/02 12:19:36;;;;;;;4.50;2.70;;;;;;;20.42;39.33;102105.22;10455309;28;20508;-80
2022/06/02 12:24:59;;;;;;;4.38;2.95;;;;;;;20.06;40.37;102096.34;10460588;28;20123;-80
2022/06/02 12:30:27;;;;;;;4.32;3.05;;;;;;;19.81;38.44;102096.16;10475342;28;20040;-80
2022/06/02 12:35:47;;;;;;;3.28;2.40;;;;;;;20.43;42.66;102091.28;10491487;28;20044;-79
2022/06/02 12:41:07;;;;;;;4.72;2.80;;;;;;;20.74;38.43;102088.75;10483789;28;20052;-79
2022/06/02 12:46:14;;;;;;;;;;;;;;;20.94;39.90;102093.19;10464485;28;20079;-79
2022/06/02 12:51:34;;;;;;;4.25;2.35;;;;;;;20.72;39.79;102096.63;10460873;28;20508;-80
2022/06/02 12:56:55;;;;;;;3.55;2.63;;;;;;;20.74;39.93;102091.38;10469202;28;20079;-81
2022/06/02 13:02:06;;;;;;;4.13;2.78;;;;;;;20.52;41.89;102091.28;10477987;28;20037;-81
2022/06/02 13:07:45;;;;;;;4.70;2.70;;;;;;;20.47;37.37;102092.16;10459756;28;20119;-80
2022/06/02 13:13:05;;;;;;;4.22;2.58;;;;;;;20.26;40.72;102088.56;10459052;28;20131;-80
2022/06/02 13:18:22;;;;;;;3.65;2.38;;;;;;;20.08;41.41;102074.56;10456944;28;20048;-81
2022/06/02 13:23:36;;;;;;;2.80;2.20;;;;;;;20.74;38.43;102075.66;10487720;28;20098;-79
2022/06/02 13:29:18;;;;;;;2.70;2.33;;;;;;;20.41;38.87;102074.69;10469686;28;20048;-80
2022/06/02 13:34:32;;;;;;;4.50;2.40;;;;;;;20.89;41.65;102077.47;10487649;28;20460;-79
2022/06/02 13:40:12;;;;;;;3.10;2.38;;;;;;;21.30;40.92;102076.59;10464137;28;20509;-78
2022/06/02 13:45:35;;;;;;;5.13;2.88;;;;;;;20.71;39.58;102079.13;10452274;28;20053;-78
2022/06/02 13:51:09;;;;;;;4.03;2.63;;;;;;;19.83;42.51;102081.34;10465001;28;20045;-78
2022/06/02 14:01:47;;;;;;;4.57;2.35;;;;;;;19.43;38.86;102075.84;10456755;28;20099;-78
2022/06/02 14:07:33;;;;;;;4.25;2.75;;;;;;;19.84;40.95;102071.75;10461811;28;20402;-77
2022/06/02 14:12:50;;;;;;;7.00;3.15;;;;;;;20.24;40.30;102064.16;10454423;28;20534;-78
2022/06/02 14:18:21;;;;;;;6.30;3.30;;;;;;;19.91;39.54;102056.16;10465710;28;20078;-80
2022/06/02 14:24:04;;;;;;;3.85;2.90;;;;;;;20.07;38.60;102064.94;10468237;28;20048;-79
2022/06/02 14:29:50;;;;;;;4.28;2.78;;;;;;;20.40;41.57;102046.75;10482899;28;20110;-78
2022/06/02 14:35:23;;;;;;;3.92;2.78;;;;;;;19.84;39.78;102053.44;10451846;28;20069;-80
2022/06/02 14:40:28;;;;;;;3.50;2.60;;;;;;;20.01;41.70;102044.00;10466054;28;20500;-80
2022/06/02 14:45:48;;;;;;;3.92;2.47;;;;;;;20.28;40.37;102044.97;10459290;28;20052;-79
2022/06/02 14:51:11;;;;;;;4.03;3.08;;;;;;;20.03;39.17;102054.47;10466163;28;20040;-80
2022/06/02 14:56:28;;;;;;;3.80;3.00;;;;;;;20.45;40.85;102058.09;10458818;28;20045;-80
2022/06/02 15:01:40;;;;;;;4.32;2.90;;;;;;;20.09;38.76;102044.03;10479745;28;20044;-79
2022/06/02 15:07:01;;;;;;;5.25;3.00;;;;;;;19.88;40.62;102044.81;10473652;28;20044;-78
2022/06/02 15:12:15;;;;;;;5.32;3.00;;;;;;;19.34;41.19;102048.78;10457960;22;20439;-77
2022/06/02 15:17:35;;;;;;;4.57;2.35;;;;;;;19.97;40.01;102045.72;10401206;28;20038;-75
2022/06/02 15:22:56;;;;;;;;;;;;;;;20.23;39.15;102042.34;10418064;28;20099;-76
2022/06/02 15:28:20;;;;;;;5.07;3.25;;;;;;;19.91;38.92;102040.47;10411229;28;20319;-76
2022/06/02 15:33:43;;;;;;;4.40;3.25;;;;;;;20.08;39.30;102026.56;10405917;28;20054;-75
2022/06/02 15:39:18;;;;;;;4.80;2.85;;;;;;;20.19;39.91;102029.22;10407499;28;20052;-76
2022/06/02 15:44:58;;;;;;;4.07;3.00;;;;;;;19.99;41.54;102031.78;10417647;28;20037;-76
2022/06/02 15:50:25;;;;;;;4.32;2.38;;;;;;;19.99;39.48;102035.25;10409073;28;20091;-75
2022/06/02 15:55:51;;;;;;;3.63;2.33;;;;;;;19.73;40.59;102024.63;10406506;28;20053;-76
2022/06/02 16:01:17;;;;;;;5.82;2.58;;;;;;;19.68;41.07;102021.13;10396539;28;20042;-77
2022/06/02 16:06:51;;;;;;;3.75;2.47;;;;;;;19.76;39.41;102014.19;10402799;28;20053;-76
2022/06/02 16:12:07;;;;;;;4.15;2.80;;;;;;;19.85;39.41;102003.81;10404702;28;20444;-76
2022/06/02 16:17:39;;;;;;;2.95;2.40;;;;;;;19.71;38.23;102000.22;10409988;28;20045;-76
2022/06/02 16:23:13;;;;;;;3.58;1.75;;;;;;;20.11;40.21;101998.69;10409549;28;20045;-76
2022/06/02 16:28:57;;;;;;;2.55;1.90;;;;;;;19.76;40.08;101993.28;10400659;28;20053;-76
2022/06/02 16:34:30;;;;;;;2.20;1.80;;;;;;;19.74;38.94;101995.00;10423693;28;20498;-76
2022/06/02 16:39:42;;;;;;;3.58;1.92;;;;;;;19.98;40.13;101994.28;10408251;28;20045;-76
2022/06/02 16:45:09;;;;;;;4.30;2.35;;;;;;;19.84;40.65;101981.16;10402705;28;20099;-77
2022/06/02 16:50:29;;;;;;;2.95;2.38;;;;;;;19.86;40.05;101983.78;10404675;28;20092;-76
2022/06/02 16:55:44;;;;;;;4.90;2.10;;;;;;;19.96;41.67;101975.97;10414346;28;20055;-76
2022/06/02 17:01:15;;;;;;;3.10;1.88;;;;;;;19.77;40.06;101979.34;10412968;28;20112;-76
2022/06/02 17:06:30;;;;;;;2.75;1.67;;;;;;;19.57;40.93;101982.72;10410557;28;20408;-75
2022/06/02 17:12:03;;;;;;;1.33;1.10;;;;;;;19.37;39.31;101974.75;10399429;28;20148;-76
2022/06/02 17:17:37;;;;;;;1.33;1.20;;;;;;;19.38;40.36;101983.47;10394643;28;20048;-76
2022/06/02 17:23:24;;;;;;;2.63;1.38;;;;;;;19.29;41.06;101990.38;10404956;28;20045;-76
2022/06/02 17:28:50;;;;;;;3.80;1.95;;;;;;;19.38;40.96;101986.94;10401591;28;20057;-76
2022/06/02 17:34:17;;;;;;;3.33;1.70;;;;;;;19.38;41.62;101986.09;10419461;28;20062;-77
2022/06/02 17:39:45;;;;;;;2.15;1.70;;;;;;;19.48;41.86;101985.28;10400859;28;20474;-75
2022/06/02 17:45:11;;;;;;;3.75;1.83;;;;;;;19.25;41.80;101986.00;10395373;28;20087;-76
2022/06/02 17:50:36;;;;;;;3.60;1.98;;;;;;;19.22;41.10;101985.09;10414457;28;20041;-76
2022/06/02 17:55:50;;;;;;;3.80;2.00;;;;;;;19.11;40.40;101987.63;10404075;28;20045;-76
2022/06/02 18:01:18;;;;;;;2.70;2.10;;;;;;;19.08;41.65;101982.41;10398999;28;20099;-76
2022/06/02 18:06:35;;;;;;;4.13;2.42;;;;;;;19.07;42.75;101988.47;10401683;28;20401;-75
2022/06/02 18:12:04;;;;;;;3.20;2.40;;;;;;;18.66;42.76;101989.84;10380976;28;20053;-76
2022/06/02 18:17:32;;;;;;;5.15;2.83;;;;;;;18.74;42.87;101997.72;10400866;28;20408;-77
2022/06/02 18:23:08;;;;;;;3.95;2.90;;;;;;;18.85;43.90;101990.88;10384853;28;20057;-76
2022/06/02 18:28:44;;;;;;;3.83;2.85;;;;;;;18.55;44.21;101992.34;10396330;28;20100;-75
2022/06/02 18:34:03;;;;;;;3.75;2.90;;;;;;;18.52;44.56;101987.97;10411623;28;20132;-77
2022/06/02 18:39:14;;;;;;;3.47;2.42;;;;;;;18.29;44.69;101995.53;10409221;28;20053;-77
2022/06/02 18:44:53;;;;;;;4.15;2.78;;;;;;;18.13;44.84;101988.41;10408285;28;20037;-75
2022/06/02 18:50:15;;;;;;;4.22;2.60;;;;;;;18.16;45.17;101988.44;10410282;28;20060;-76
2022/06/02 18:55:46;;;;;;;3.53;2.40;;;;;;;17.79;46.66;101987.94;10411520;28;20243;-75
2022/06/02 19:00:53;;;;;;;;;;;;;;;17.89;46.02;101989.81;10422971;28;20060;-76
2022/06/02 19:17:45;;;;;;;6.03;2.13;;;;;;;17.36;48.17;102001.22;10405837;28;20037;-75
2022/06/02 19:23:07;;;;;;;4.80;2.35;;;;;;;17.13;48.66;102005.22;10408626;28;20045;-75
2022/06/02 19:28:22;;;;;;;2.92;2.10;;;;;;;17.23;48.64;102008.00;10408010;28;20100;-76
2022/06/02 19:33:32;;;;;;;3.42;2.17;;;;;;;17.09;48.94;102011.22;10400394;28;20547;-74
2022/06/02 19:38:43;;;;;;;;;;;;;;;16.66;50.89;102013.03;10429031;28;20051;-76
2022/06/02 19:43:53;;;;;;;;;;;;;;;16.29;52.45;102014.94;10410472;28;19921;-75
2022/06/02 19:49:19;;;;;;;3.67;2.65;;;;;;;16.28;50.99;102023.59;10405567;28;20422;-75
2022/06/02 19:54:35;;;;;;;5.78;2.35;;;;;;;16.20;53.16;102020.84;10395522;28;20095;-75
2022/06/02 19:59:40;;;;;;;3.80;2.80;;;;;;;15.92;52.66;102024.56;10406330;28;20107;-75
2022/06/02 20:05:05;;;;;;;4.50;2.65;;;;;;;15.61;53.12;102029.03;10410936;28;20041;-75
2022/06/02 20:10:26;;;;;;;3.47;2.63;;;;;;;15.49;55.92;102029.63;10410830;28;20053;-75
2022/06/02 20:15:34;;;;;;;3.83;2.65;;;;;;;15.65;54.36;102025.69;10408131;28;20115;-75
2022/06/02 20:20:40;;;;;;;3.85;2.53;;;;;;;15.30;57.79;102028.34;10408782;28;20124;-76
2022/06/02 20:26:05;;;;;;;4.05;2.60;;;;;;;15.02;58.50;102030.22;10405535;28;20116;-75
2022/06/02 20:31:26;;;;;;;5.90;2.60;;;;;;;14.81;58.61;102034.03;10413211;28;20037;-75
2022/06/02 20:36:44;;;;;;;3.92;2.85;;;;;;;14.78;56.62;102038.25;10414090;28;20056;-75
2022/06/02 20:42:01;;;;;;;3.45;2.85;;;;;;;14.70;57.31;102035.47;10416137;28;20060;-75
2022/06/02 20:47:34;;;;;;;3.90;2.92;;;;;;;14.51;58.85;102027.13;10413149;28;20045;-75
2022/06/02 20:52:39;;;;;;;3.60;3.00;;;;;;;14.20;60.69;102028.84;10408313;28;20049;-74
2022/06/02 20:57:52;;;;;;;5.90;3.30;;;;;;;14.20;59.65;102034.03;10419504;28;20053;-77
2022/06/02 21:03:16;;;;;;;6.60;3.50;;;;;;;14.09;58.86;102030.28;10403443;28;20045;-76
2022/06/02 21:08:37;;;;;;;5.97;3.13;;;;;;;14.28;57.73;102037.75;10403781;28;20468;-76
2022/06/02 21:14:01;;;;;;;4.45;3.05;;;;;;;14.07;58.21;102042.31;10407265;28;20046;-77
2022/06/02 21:19:21;;;;;;;4.43;3.15;;;;;;;14.12;57.87;102040.72;10405765;28;20120;-76
2022/06/02 21:24:23;;;;;;;5.00;3.40;;;;;;;13.92;58.82;102037.56;10405205;28;20408;-75
2022/06/02 21:29:28;;;;;;;5.43;3.20;;;;;;;13.36;61.41;102029.72;10406222;28;20053;-75
2022/06/02 21:34:31;;;;;;;5.10;3.03;;;;;;;13.36;61.98;102029.72;10408057;28;20041;-75
2022/06/02 21:39:38;;;;;;;4.68;3.42;;;;;;;13.53;60.69;102028.56;10400192;28;20048;-76
2022/06/02 21:45:28;;;;;;;5.60;3.90;;;;;;;13.53;60.47;102023.41;10405758;28;20128;-76
2022/06/02 21:50:40;;;;;;;5.45;3.80;;;;;;;13.30;61.05;102028.69;10355996;28;20591;-75
2022/06/02 21:55:51;;;;;;;5.70;3.60;;;;;;;12.72;66.04;102027.59;10407107;28;20041;-75
2022/06/02 22:01:02;;;;;;;4.97;3.65;;;;;;;12.55;66.59;102021.81;10402430;28;20091;-75
2022/06/02 22:06:09;;;;;;;5.25;4.00;;;;;;;12.44;66.14;102028.31;10399417;28;20138;-76
2022/06/02 22:11:29;;;;;;;5.63;4.60;;;;;;;12.65;65.05;102023.91;10407187;28;20087;-75
2022/06/02 22:17:00;;;;;;;6.72;4.40;;;;;;;12.27;65.67;102019.94;10410467;28;20115;-76
2022/06/02 22:22:11;;;;;;;5.07;4.15;;;;;;;12.40;65.21;102027.31;10408761;28;20052;-76
2022/06/02 22:27:27;;;;;;;5.22;4.07;;;;;;;12.13;67.41;102022.00;10412644;28;20124;-76
2022/06/02 22:33:15;;;;;;;5.57;4.70;;;;;;;12.41;64.60;102028.19;10406599;28;20052;-76
2022/06/02 22:38:44;;;;;;;9.75;4.80;;;;;;;12.62;63.24;102023.78;10394430;28;20524;-76
2022/06/02 22:44:04;;;;;;;6.72;4.53;;;;;;;12.57;63.74;102024.47;10404106;28;20424;-76
2022/06/02 22:49:46;;;;;;;5.32;4.50;;;;;;;12.23;64.83;102026.72;10405386;28;20038;-75
2022/06/02 22:55:00;;;;;;;5.40;4.60;;;;;;;12.10;65.81;102025.38;10396883;28;20130;-76
2022/06/02 23:00:17;;;;;;;6.30;4.60;;;;;;;10.98;72.09;102040.69;10381330;28;20556;-76
2022/06/02 23:05:32;;;;;;;6.15;4.93;;;;;;;11.21;71.36;102038.16;10424411;28;20095;-75
2022/06/02 23:10:58;;;;;;;7.90;5.10;;;;;;;12.02;66.20;102030.25;10399961;28;20426;-76
2022/06/02 23:16:16;;;;;;;9.27;4.90;;;;;;;11.74;67.79;102036.88;10411951;28;20038;-76
2022/06/02 23:21:54;;;;;;;5.93;4.88;;;;;;;11.94;65.51;102036.78;10408337;28;20049;-76
2022/06/02 23:27:07;;;;;;;7.53;4.85;;;;;;;11.98;66.03;102038.69;10419228;28;20041;-75
2022/06/02 23:32:35;;;;;;;6.35;4.82;;;;;;;11.48;67.68;102030.69;10409087;28;20050;-75
2022/06/02 23:38:12;;;;;;;6.05;5.20;;;;;;;11.61;67.18;102034.66;10415109;28;20382;-76
2022/06/02 23:49:11;;;;;;;8.80;4.97;;;;;;;11.51;67.77;102028.25;10416765;28;20048;-76
2022/06/02 23:54:38;;;;;;;6.93;5.20;;;;;;;11.60;67.18;102032.88;10411876;28;20041;-76
2022/06/02 23:59:55;;;;;;;5.85;4.80;;;;;;;11.64;67.42;102036.47;10428385;28;20121;-76
